Latest Weather Observations for Broken Hill Airport

IDN60801

Issued at 10:04 pm EDT Sunday 21 December 2014 (issued every 30 minutes, with the page automatically refreshed every 10 minutes)

About weather observations | Map of weather stations | Latest weather observations for NSW | Other Formats
Station Details ID: 047048 Name: BROKEN HILL AIRPORT AWS Lat: -32.00 Lon: 141.47 Height: 281.3 m
Data from the previous 72 hours. | See also: Recent months for locations in New South Wales
Date/Time
EDT
Temp
°C
App
Temp
°C
Dew
Point
Rel
Hum
%
Delta-T
°C
Wind Press
QNH
hPa
Press
MSL
hPa
Rain
since 9 am
mm
Dir
 
Spd
km/h
Gust
km/h
Spd
kts
Gust
kts
21/10:00pm 31.2 28.0 -0.5 13 15.4 E 6 7 3 4 1010.6 1009.2 -
21/09:30pm 31.6 28.5 -0.1 13 15.5 E 6 7 3 4 1010.5 1009.1 0.0
21/09:00pm 32.3 28.9 -0.7 12 16.0 ENE 7 7 4 4 1010.5 1009.1 0.0
21/08:30pm 33.5 30.2 -1.0 11 16.8 NNE 6 9 3 5 1010.1 1008.7 0.0
21/08:00pm 33.8 30.6 -0.7 11 16.9 NNW 6 9 3 5 1010.0 1008.6 0.0
21/07:30pm 34.2 31.0 -0.4 11 17.1 NNW 6 9 3 5 1009.8 1008.4 0.0
21/07:00pm 34.5 30.4 -0.2 11 17.3 WNW 11 17 6 9 1009.9 1008.5 0.0
21/06:30pm 34.7 31.8 -1.4 10 17.6 NNW 4 11 2 6 1009.7 1008.3 0.0
21/06:00pm 35.0 31.2 -1.1 10 17.8 ESE 9 15 5 8 1009.8 1008.4 0.0
21/05:30pm 34.8 31.9 -1.3 10 17.7 NE 4 11 2 6 1010.0 1008.6 0.0
21/05:00pm 34.9 31.0 -1.2 10 17.7 S 9 20 5 11 1010.2 1008.8 0.0
21/04:30pm 35.6 31.8 -0.7 10 18.0 NNW 9 24 5 13 1010.7 1009.3 0.0
21/04:00pm 34.9 31.2 0.1 11 17.4 NW 9 22 5 12 1011.0 1009.6 0.0
21/03:30pm 35.4 31.0 0.5 11 17.6 NW 13 22 7 12 1011.5 1010.1 0.0
21/03:00pm 35.1 31.1 0.2 11 17.5 N 11 19 6 10 1011.8 1010.4 0.0
21/02:30pm 34.6 30.1 -0.1 11 17.3 NNW 13 20 7 11 1012.0 1010.6 0.0
21/02:00pm 35.1 31.4 0.2 11 17.5 N 9 17 5 9 1012.5 1011.1 0.0
21/01:30pm 33.2 29.1 0.0 12 16.4 N 11 20 6 11 1013.3 1011.9 0.0
21/01:00pm 33.9 29.5 0.5 12 16.7 WNW 13 22 7 12 1013.6 1012.2 0.0
21/12:30pm 33.2 28.5 1.1 13 16.2 ESE 15 20 8 11 1014.0 1012.6 0.0
21/12:00pm 32.7 28.9 1.7 14 15.7 N 11 15 6 8 1014.2 1012.8 0.0
21/11:30am 32.0 27.7 1.2 14 15.4 NNE 13 19 7 10 1014.4 1013.0 0.0
21/11:00am 31.6 27.0 1.8 15 15.0 E 15 24 8 13 1014.8 1013.5 0.0
21/10:30am 30.8 25.5 2.1 16 14.5 ENE 19 24 10 13 1014.8 1013.5 0.0
21/10:00am 30.0 23.4 2.3 17 13.9 NE 26 33 14 18 1014.9 1013.6 0.0
21/09:30am 29.2 22.4 3.2 19 13.2 NE 28 33 15 18 1015.0 1013.7 0.0
21/09:00am 28.3 21.9 3.2 20 12.7 ENE 26 32 14 17 1014.9 1013.6 0.0
21/08:30am 27.0 21.0 3.5 22 11.8 NE 24 30 13 16 1014.8 1013.5 0.0
21/08:00am 25.7 20.4 3.0 23 11.2 NE 20 24 11 13 1014.6 1013.2 0.0
21/07:30am 24.1 19.7 2.9 25 10.4 NE 15 17 8 9 1014.2 1012.8 0.0
21/07:00am 21.3 17.0 3.0 30 8.8 NE 15 15 8 8 1013.9 1012.5 0.0
21/06:30am 19.3 15.2 2.2 32 8.0 NE 13 15 7 8 1013.7 1012.3 0.0
21/06:00am 19.0 14.9 2.4 33 7.7 ENE 13 15 7 8 1013.5 1012.1 0.0
21/05:30am 19.0 14.7 1.1 30 8.1 ENE 13 13 7 7 1013.4 1012.0 0.0
21/05:00am 21.0 16.9 2.3 29 8.8 ENE 13 15 7 8 1013.3 1011.9 0.0
21/04:30am 20.5 16.3 1.9 29 8.7 ENE 13 15 7 8 1013.1 1011.7 0.0
21/04:00am 21.0 16.9 2.3 29 8.8 ENE 13 15 7 8 1013.1 1011.7 0.0
21/03:30am 21.0 17.2 1.8 28 9.0 E 11 13 6 7 1013.1 1011.7 0.0
21/03:00am 22.2 18.9 2.3 27 9.5 E 9 11 5 6 1013.4 1012.0 0.0
21/02:30am 21.6 17.8 1.8 27 9.3 E 11 11 6 6 1013.6 1012.2 0.0
21/02:00am 22.6 19.2 2.1 26 9.8 E 9 13 5 7 1014.0 1012.6 0.0
21/01:30am 21.9 18.8 1.5 26 9.6 ENE 7 7 4 4 1014.2 1012.8 0.0
21/01:00am 23.7 20.4 2.5 25 10.3 E 9 11 5 6 1014.3 1012.9 0.0
21/12:30am 23.7 20.3 2.0 24 10.4 E 9 9 5 5 1014.4 1013.0 0.0
21/12:00am 23.5 19.7 1.8 24 10.4 E 11 13 6 7 1014.5 1013.1 0.0
 
Date/Time
EDT
Temp
°C
App
Temp
°C
Dew
Point
Rel
Hum
%
Delta-T
°C
Wind Press
QNH
hPa
Press
MSL
hPa
Rain
since 9 am
mm
Dir
 
Spd
km/h
Gust
km/h
Spd
kts
Gust
kts
20/11:30pm 23.8 20.4 2.0 24 10.5 ENE 9 11 5 6 1014.7 1013.3 0.0
20/11:00pm 23.8 19.9 1.4 23 10.6 E 11 13 6 7 1014.7 1013.3 0.0
20/10:30pm 24.4 20.1 1.3 22 11.0 E 13 13 7 7 1014.7 1013.3 0.0
20/10:00pm 24.3 19.9 0.6 21 11.1 ESE 13 13 7 7 1014.6 1013.2 0.0
20/09:30pm 25.9 21.5 0.5 19 12.0 ESE 13 15 7 8 1014.5 1013.1 0.0
20/09:00pm 26.9 22.9 0.6 18 12.6 ESE 11 15 6 8 1014.5 1013.1 0.0
20/08:30pm 28.7 24.7 0.4 16 13.7 ESE 11 17 6 9 1014.3 1012.9 0.0
20/08:00pm 29.7 24.5 0.3 15 14.3 SE 17 22 9 12 1014.1 1012.7 0.0
20/07:30pm 30.2 25.5 0.7 15 14.5 SE 15 24 8 13 1013.9 1012.5 0.0
20/07:00pm 30.6 27.1 1.0 15 14.6 SSE 9 17 5 9 1013.9 1012.5 0.0
20/06:30pm 30.6 26.2 0.1 14 14.8 SE 13 26 7 14 1013.8 1012.4 0.0
20/06:00pm 31.2 26.5 0.6 14 15.1 ESE 15 24 8 13 1013.8 1012.4 0.0
20/05:30pm 30.8 26.0 0.2 14 14.9 SSE 15 26 8 14 1014.0 1012.6 0.0
20/05:00pm 30.8 26.8 0.2 14 14.9 ESE 11 20 6 11 1014.1 1012.7 0.0
20/04:30pm 30.2 25.3 -0.2 14 14.7 E 15 26 8 14 1014.6 1013.2 0.0
20/04:00pm 29.4 25.3 0.1 15 14.1 SSE 11 19 6 10 1014.8 1013.5 0.0
20/03:30pm 29.4 25.1 1.0 16 13.9 S 13 28 7 15 1015.5 1014.1 0.0
20/03:00pm 28.8 24.4 0.5 16 13.7 E 13 24 7 13 1015.9 1014.5 0.0
20/02:30pm 28.5 25.0 1.1 17 13.4 SE 9 20 5 11 1016.4 1015.0 0.0
20/02:00pm 27.8 23.5 1.3 18 12.9 S 13 24 7 13 1016.8 1015.4 0.0
20/01:30pm 27.2 23.0 1.6 19 12.5 S 13 24 7 13 1017.2 1015.8 0.0
20/01:00pm 27.3 22.0 1.7 19 12.5 SE 19 28 10 15 1017.7 1016.3 0.0
20/12:30pm 26.0 21.7 1.3 20 11.9 SE 13 22 7 12 1018.0 1016.7 0.0
20/12:00pm 25.8 22.0 1.8 21 11.6 ESE 11 20 6 11 1018.4 1017.1 0.0
20/11:30am 25.1 20.9 1.9 22 11.2 SE 13 22 7 12 1018.6 1017.3 0.0
20/11:00am 24.3 20.5 1.9 23 10.7 SE 11 19 6 10 1019.0 1017.7 0.0
20/10:30am 23.9 19.9 2.7 25 10.3 SSE 13 20 7 11 1019.4 1018.0 0.0
20/10:00am 22.5 18.2 3.1 28 9.4 SSE 15 20 8 11 1019.6 1018.2 0.0
20/09:30am 20.8 16.8 3.1 31 8.5 SSE 13 22 7 12 1019.5 1018.1 0.0
20/09:00am 20.0 15.3 3.3 33 8.0 S 17 24 9 13 1019.5 1018.1 0.0
20/08:30am 18.9 13.7 3.5 36 7.3 S 20 26 11 14 1019.1 1017.8 0.0
20/08:00am 18.0 13.1 3.9 39 6.7 S 19 26 10 14 1018.9 1017.6 0.0
20/07:30am 16.6 12.7 3.6 42 6.1 SSW 13 17 7 9 1018.7 1017.4 0.0
20/07:00am 14.3 11.0 2.5 45 5.3 SW 9 9 5 5 1018.6 1017.3 0.0
20/06:30am 13.3 9.6 2.2 47 4.9 SW 11 13 6 7 1018.4 1017.1 0.0
20/06:00am 15.8 11.6 3.6 44 5.7 S 15 20 8 11 1017.8 1016.4 0.0
20/05:30am 16.1 11.5 3.5 43 5.9 SSE 17 20 9 11 1017.3 1015.9 0.0
20/05:00am 16.1 11.4 2.9 41 6.1 SSE 17 19 9 10 1017.0 1015.6 0.0
20/04:30am 16.5 11.7 2.5 39 6.4 SSE 17 20 9 11 1017.0 1015.6 0.0
20/04:00am 17.0 12.1 1.8 36 6.9 SSE 17 20 9 11 1017.1 1015.7 0.0
20/03:30am 17.3 12.9 0.5 32 7.4 S 13 17 7 9 1017.2 1015.8 0.0
20/03:00am 17.8 13.5 0.9 32 7.6 SSE 13 15 7 8 1017.2 1015.8 0.0
20/02:30am 18.6 13.9 1.2 31 7.9 SSE 15 17 8 9 1017.4 1016.0 0.0
20/02:00am 18.5 14.2 1.1 31 7.9 SSE 13 15 7 8 1017.5 1016.1 0.0
20/01:30am 18.8 14.4 0.4 29 8.2 SSE 13 15 7 8 1017.9 1016.6 0.0
20/01:00am 18.9 14.4 0.0 28 8.4 SSE 13 15 7 8 1018.2 1016.9 0.0
20/12:30am 19.6 15.5 0.1 27 8.7 SSE 11 13 6 7 1018.4 1017.1 0.0
20/12:00am 20.2 15.8 0.1 26 9.0 SSE 13 17 7 9 1018.5 1017.2 0.0
 
Date/Time
EDT
Temp
°C
App
Temp
°C
Dew
Point
Rel
Hum
%
Delta-T
°C
Wind Press
QNH
hPa
Press
MSL
hPa
Rain
since 9 am
mm
Dir
 
Spd
km/h
Gust
km/h
Spd
kts
Gust
kts
19/11:30pm 20.5 16.0 -0.2 25 9.3 SSE 13 17 7 9 1018.6 1017.3 0.0
19/11:00pm 20.5 15.6 -0.2 25 9.3 SE 15 15 8 8 1018.7 1017.4 0.0
19/10:30pm 20.7 16.1 -1.2 23 9.6 SSE 13 13 7 7 1018.7 1017.4 0.0
19/10:00pm 22.0 17.4 -1.3 21 10.3 SSE 13 19 7 10 1018.4 1017.1 0.0
19/09:30pm 22.9 17.2 -0.6 21 10.6 SSE 19 24 10 13 1018.0 1016.7 0.0
19/09:00pm 23.5 17.2 -0.7 20 11.0 S 22 28 12 15 1017.7 1016.3 0.0
19/08:30pm 24.2 18.3 -0.9 19 11.4 SSE 20 30 11 16 1017.4 1016.0 0.0
19/08:00pm 24.9 17.8 -1.0 18 11.8 SSE 26 35 14 19 1017.1 1015.7 0.0
19/07:30pm 25.4 18.8 -0.6 18 12.0 S 24 33 13 18 1016.7 1015.3 0.0
19/07:00pm 26.1 19.1 -0.8 17 12.5 SSE 26 37 14 20 1016.5 1015.1 0.0
19/06:30pm 26.0 18.8 -1.7 16 12.6 S 26 35 14 19 1016.5 1015.1 0.0
19/06:00pm 26.6 20.3 -1.3 16 12.9 SSW 22 37 12 20 1016.5 1015.1 0.0
19/05:30pm 26.8 20.0 -2.0 15 13.1 S 24 39 13 21 1016.5 1015.1 0.0
19/05:00pm 26.6 19.4 -2.1 15 13.0 S 26 37 14 20 1016.8 1015.4 0.0
19/04:30pm 26.3 18.7 -2.4 15 12.9 SSW 28 44 15 24 1017.1 1015.7 0.0
19/04:00pm 26.6 20.1 -2.1 15 13.0 SSW 22 35 12 19 1017.3 1015.9 0.0
19/03:30pm 26.1 20.0 -2.5 15 12.8 SSW 20 33 11 18 1017.6 1016.2 0.0
19/03:00pm 24.6 19.2 -1.3 18 11.7 S 17 32 9 17 1017.9 1016.6 0.0
19/02:30pm 25.0 19.2 -0.2 19 11.7 S 20 33 11 18 1018.1 1016.8 0.0
19/02:00pm 24.6 18.9 -0.5 19 11.5 SW 19 30 10 16 1018.2 1016.9 0.0
19/01:30pm 23.4 17.9 0.5 22 10.7 S 19 30 10 16 1018.7 1017.4 0.0
19/01:00pm 22.0 16.2 -0.1 23 10.0 S 20 32 11 17 1018.8 1017.5 0.0
19/12:30pm 21.5 15.8 0.7 25 9.5 SSE 20 30 11 16 1019.0 1017.7 0.0
19/12:00pm 21.8 16.6 2.5 28 9.2 S 19 30 10 16 1019.1 1017.8 0.0
19/11:30am 20.5 14.7 2.3 30 8.6 S 22 32 12 17 1019.3 1017.9 0.0
19/11:00am 19.3 13.1 2.2 32 7.9 SSW 24 33 13 18 1019.1 1017.8 0.0
19/10:30am 18.5 12.6 3.9 38 7.0 S 24 33 13 18 1019.3 1017.9 0.0
19/10:00am 18.1 11.5 4.3 40 6.6 SSW 28 35 15 19 1019.3 1017.9 0.0
19/09:30am 17.8 11.3 4.7 42 6.3 SSE 28 37 15 20 1019.3 1017.9 0.0
19/09:00am 16.8 10.6 4.2 43 6.0 S 26 33 14 18 1019.0 1017.7 0.0
19/08:30am 16.2 10.0 4.3 45 5.6 SSE 26 35 14 19 1018.6 1017.3 0.0
19/08:00am 15.8 9.4 5.1 49 5.1 S 28 37 15 20 1018.3 1017.0 0.0
19/07:30am 15.1 8.7 5.3 52 4.7 S 28 35 15 19 1017.9 1016.6 0.0
19/07:00am 14.6 8.6 5.4 54 4.4 S 26 35 14 19 1017.6 1016.2 0.0
19/06:30am 14.4 8.8 5.5 55 4.3 S 24 30 13 16 1017.2 1015.8 0.0
19/06:00am 14.7 9.7 6.3 57 4.1 S 22 30 12 16 1016.9 1015.5 0.0
19/05:30am 15.3 10.3 6.3 55 4.4 S 22 28 12 15 1016.6 1015.2 0.0
19/05:00am 15.8 10.8 6.5 54 4.6 S 22 30 12 16 1016.1 1014.7 0.0
19/04:30am 16.2 11.1 6.1 51 5.0 S 22 32 12 17 1015.8 1014.4 0.0
19/04:00am 17.0 10.4 6.2 49 5.4 S 30 37 16 20 1015.6 1014.2 0.0
19/03:30am 17.6 10.7 6.5 48 5.6 S 32 39 17 21 1015.5 1014.1 0.0
19/03:00am 18.4 13.0 6.3 45 6.1 S 24 35 13 19 1015.2 1013.9 0.0
19/02:30am 18.9 13.5 4.7 39 6.9 S 22 30 12 16 1015.1 1013.8 0.0
19/02:00am 19.5 13.2 4.0 36 7.5 SSW 26 32 14 17 1015.0 1013.7 0.0
19/01:30am 20.2 13.9 3.9 34 7.9 SSW 26 35 14 19 1015.1 1013.8 0.0
19/01:00am 20.8 14.2 4.0 33 8.2 SSW 28 35 15 19 1015.1 1013.8 0.0
19/12:30am 21.5 15.3 4.1 32 8.5 SSW 26 35 14 19 1015.1 1013.8 0.0
19/12:00am 22.3 15.7 4.4 31 8.9 SSW 28 35 15 19 1014.8 1013.5 0.0
 
Date/Time
EDT
Temp
°C
App
Temp
°C
Dew
Point
Rel
Hum
%
Delta-T
°C
Wind Press
QNH
hPa
Press
MSL
hPa
Rain
since 9 am
mm
Dir
 
Spd
km/h
Gust
km/h
Spd
kts
Gust
kts
18/11:30pm 22.9 17.2 4.9 31 9.1 SSW 24 30 13 16 1014.5 1013.1 0.0
18/11:00pm 23.5 17.6 4.0 28 9.7 SSW 24 33 13 18 1014.3 1012.9 0.0

Other Formats:

Comma delimited format used in spreadsheet applications
http://www.bom.gov.au/fwo/IDN60801/IDN60801.94691.axf

JavaScript Object Notation format (JSON) in row-major order
http://www.bom.gov.au/fwo/IDN60801/IDN60801.94691.json